createdAt,value
2022-08-25T00:00:44.764Z,15.00
2022-08-25T00:01:51.219Z,17.77
2022-08-25T00:02:56.418Z,16.15
2022-08-25T00:04:00.441Z,15.63
2022-08-25T00:05:05.039Z,16.85
2022-08-25T00:06:09.751Z,15.07
2022-08-25T00:07:12.437Z,15.93
2022-08-25T00:08:20.745Z,14.02
2022-08-25T00:09:25.983Z,15.13
2022-08-25T00:10:33.896Z,16.15
2022-08-25T00:11:40.780Z,15.15
2022-08-25T00:12:50.895Z,15.20
2022-08-25T00:13:57.853Z,19.15
2022-08-25T00:15:00.058Z,15.52
2022-08-25T00:16:03.047Z,15.68
2022-08-25T00:17:06.492Z,14.88
2022-08-25T00:18:16.593Z,15.00
2022-08-25T00:19:25.847Z,15.30
2022-08-25T00:20:29.025Z,17.55
2022-08-25T00:21:31.981Z,14.98
2022-08-25T00:22:34.257Z,18.35
2022-08-25T00:23:36.868Z,16.10
2022-08-25T00:24:39.753Z,18.45
2022-08-25T00:25:42.006Z,15.57
2022-08-25T00:26:47.116Z,14.88
2022-08-25T00:27:53.001Z,14.82
2022-08-25T00:29:02.037Z,14.50
2022-08-25T00:30:06.008Z,14.52
2022-08-25T00:31:14.717Z,14.07
2022-08-25T00:32:18.485Z,14.32
2022-08-25T00:33:21.227Z,13.95
2022-08-25T00:34:29.826Z,14.30
2022-08-25T00:35:32.090Z,14.90
2022-08-25T00:36:35.012Z,17.35
2022-08-25T00:37:38.044Z,14.90
2022-08-25T00:38:42.455Z,15.48
2022-08-25T00:39:45.360Z,14.55
2022-08-25T00:41:06.026Z,16.25
2022-08-25T00:42:15.910Z,14.35
2022-08-25T00:43:18.890Z,14.55
2022-08-25T00:44:21.671Z,13.73
2022-08-25T00:45:24.030Z,14.70
2022-08-25T00:46:33.658Z,18.50
2022-08-25T00:47:36.609Z,14.75
2022-08-25T00:48:40.513Z,15.48
2022-08-25T00:49:47.857Z,15.20
2022-08-25T00:50:59.670Z,14.88
2022-08-25T00:52:07.446Z,14.25
2022-08-25T00:53:09.935Z,14.65
2022-08-25T00:54:17.757Z,14.50
2022-08-25T00:55:49.960Z,18.00
2022-08-25T00:56:52.317Z,16.75
2022-08-25T00:58:00.263Z,15.07
2022-08-25T00:59:03.727Z,15.55
2022-08-25T01:00:27.537Z,14.93
2022-08-25T01:01:30.637Z,16.35
2022-08-25T01:02:41.854Z,14.75
2022-08-25T01:03:44.242Z,15.48
2022-08-25T01:04:49.856Z,15.23
2022-08-25T01:05:53.728Z,16.38
2022-08-25T01:07:00.223Z,15.55
2022-08-25T01:08:06.739Z,16.15
2022-08-25T01:09:15.293Z,14.73
2022-08-25T01:10:19.210Z,14.40
2022-08-25T01:11:21.934Z,16.45
2022-08-25T01:12:24.621Z,17.17
2022-08-25T01:13:33.901Z,14.75
2022-08-25T01:14:39.759Z,14.75
2022-08-25T01:15:46.787Z,15.02
2022-08-25T01:16:50.983Z,15.48
2022-08-25T01:17:57.753Z,15.88
2022-08-25T01:19:03.064Z,15.35
2022-08-25T01:20:08.795Z,14.88
2022-08-25T01:21:12.230Z,15.23
2022-08-25T01:22:17.466Z,16.02
2022-08-25T01:23:20.243Z,17.27
2022-08-25T01:24:37.246Z,15.23
2022-08-25T01:25:48.615Z,14.77
2022-08-25T01:26:53.474Z,16.52
2022-08-25T01:27:55.981Z,15.20
2022-08-25T01:29:22.584Z,18.05
2022-08-25T01:30:25.774Z,15.73
2022-08-25T01:31:32.341Z,15.77
2022-08-25T01:32:35.175Z,14.68
2022-08-25T01:33:38.071Z,17.05
2022-08-25T01:34:42.789Z,15.05
2022-08-25T01:35:45.920Z,14.68
2022-08-25T01:36:48.573Z,14.85
2022-08-25T01:37:50.852Z,15.57
2022-08-25T01:38:53.898Z,15.63
2022-08-25T01:39:56.306Z,16.35
2022-08-25T01:40:58.793Z,15.82
2022-08-25T01:42:28.090Z,15.27
2022-08-25T01:43:37.301Z,15.93
2022-08-25T01:44:44.295Z,14.55
2022-08-25T01:45:48.371Z,17.60
2022-08-25T01:46:54.755Z,15.27
2022-08-25T01:47:59.428Z,17.90
2022-08-25T01:49:06.888Z,15.35
2022-08-25T01:50:09.865Z,16.00
2022-08-25T01:51:14.355Z,15.30
2022-08-25T01:52:37.292Z,17.55
2022-08-25T01:53:41.701Z,15.45
2022-08-25T01:54:44.048Z,14.90
2022-08-25T01:55:52.112Z,15.07
2022-08-25T01:56:54.317Z,15.45
2022-08-25T01:57:58.338Z,15.20
2022-08-25T01:59:01.205Z,15.07
2022-08-25T02:00:07.248Z,15.13
2022-08-25T02:01:18.800Z,15.70
2022-08-25T02:02:24.097Z,16.20
2022-08-25T02:03:29.959Z,15.30
2022-08-25T02:04:35.305Z,15.90
2022-08-25T02:05:37.509Z,16.80
2022-08-25T02:06:41.034Z,15.02
2022-08-25T02:07:44.101Z,17.52
2022-08-25T02:08:50.172Z,16.05
2022-08-25T02:09:53.541Z,15.77
2022-08-25T02:10:59.145Z,15.90
2022-08-25T02:12:01.382Z,15.38
2022-08-25T02:13:04.529Z,15.98
2022-08-25T02:14:12.026Z,15.75
2022-08-25T02:15:14.686Z,16.40
2022-08-25T02:16:25.133Z,16.10
2022-08-25T02:17:28.747Z,14.55
2022-08-25T02:18:30.962Z,15.43
2022-08-25T02:19:36.418Z,14.80
2022-08-25T02:20:38.901Z,16.38
2022-08-25T02:21:41.788Z,16.10
2022-08-25T02:22:53.046Z,15.07
2022-08-25T02:23:59.547Z,15.23
2022-08-25T02:25:03.188Z,18.00
2022-08-25T02:26:05.662Z,15.05
2022-08-25T02:27:08.306Z,15.70
2022-08-25T02:28:11.071Z,14.85
2022-08-25T02:29:13.816Z,14.32
2022-08-25T02:30:16.797Z,14.77
2022-08-25T02:31:21.874Z,16.77
2022-08-25T02:32:27.116Z,15.85
2022-08-25T02:33:32.465Z,15.65
2022-08-25T02:34:35.561Z,13.25
2022-08-25T02:35:38.065Z,14.82
2022-08-25T02:36:40.350Z,15.38
2022-08-25T02:37:42.579Z,14.73
2022-08-25T02:38:45.539Z,14.07
2022-08-25T02:39:47.950Z,14.80
2022-08-25T02:40:51.712Z,14.32
2022-08-25T02:41:54.369Z,13.73
2022-08-25T02:42:57.555Z,14.68
2022-08-25T02:44:01.749Z,15.85
2022-08-25T02:45:05.160Z,14.95
2022-08-25T02:46:08.076Z,14.75
2022-08-25T02:47:10.849Z,15.13
2022-08-25T02:48:13.677Z,14.95
2022-08-25T02:49:18.554Z,14.48
2022-08-25T02:50:24.067Z,14.00
2022-08-25T02:51:30.204Z,13.88
2022-08-25T02:52:32.970Z,14.25
2022-08-25T02:53:36.316Z,15.27
2022-08-25T02:54:38.689Z,13.80
2022-08-25T02:55:43.474Z,15.48
2022-08-25T02:56:52.025Z,14.25
2022-08-25T02:57:54.288Z,14.77
2022-08-25T02:58:56.537Z,13.77
2022-08-25T02:59:59.062Z,13.40
2022-08-25T03:01:01.589Z,13.57
2022-08-25T03:02:04.517Z,13.73
2022-08-25T03:03:09.248Z,16.20
2022-08-25T03:04:12.469Z,14.27
2022-08-25T03:05:15.511Z,14.20
2022-08-25T03:06:20.767Z,15.38
2022-08-25T03:07:22.991Z,14.48
2022-08-25T03:08:27.561Z,15.60
2022-08-25T03:09:30.153Z,14.60
2022-08-25T03:10:36.959Z,14.48
2022-08-25T03:11:39.464Z,13.70
2022-08-25T03:12:41.803Z,15.60
2022-08-25T03:13:44.039Z,14.02
2022-08-25T03:14:46.217Z,13.95
2022-08-25T03:15:49.415Z,13.95
2022-08-25T03:16:51.709Z,16.35
2022-08-25T03:17:55.316Z,15.70
2022-08-25T03:18:58.348Z,14.95
2022-08-25T03:20:05.899Z,17.80
2022-08-25T03:21:08.750Z,15.50
2022-08-25T03:22:10.960Z,15.25
2022-08-25T03:23:13.249Z,14.98
2022-08-25T03:24:16.158Z,14.98
2022-08-25T03:25:40.019Z,15.23
2022-08-25T03:26:54.367Z,15.70
2022-08-25T03:27:57.171Z,14.77
2022-08-25T03:29:00.384Z,16.10
2022-08-25T03:30:03.575Z,15.38
2022-08-25T03:31:05.980Z,16.15
2022-08-25T03:32:08.465Z,15.45
2022-08-25T03:33:11.232Z,17.02
2022-08-25T03:34:17.012Z,16.63
2022-08-25T03:35:20.269Z,16.00
2022-08-25T03:36:23.255Z,15.95
2022-08-25T03:37:25.491Z,18.27
2022-08-25T03:38:28.358Z,16.10
2022-08-25T03:39:30.586Z,16.10
2022-08-25T03:40:33.124Z,16.85
2022-08-25T03:41:39.138Z,14.57
2022-08-25T03:42:44.984Z,16.20
2022-08-25T03:43:48.893Z,15.55
2022-08-25T03:44:55.125Z,14.95
2022-08-25T03:45:57.463Z,15.65
2022-08-25T03:47:07.477Z,16.15
2022-08-25T03:48:09.702Z,16.95
2022-08-25T03:49:18.587Z,16.35
2022-08-25T03:50:22.427Z,15.48
2022-08-25T03:51:34.895Z,15.73
2022-08-25T03:52:42.278Z,15.93
2022-08-25T03:53:47.173Z,15.88
2022-08-25T03:54:49.552Z,15.52
2022-08-25T03:55:51.774Z,16.40
2022-08-25T03:56:54.462Z,16.20
2022-08-25T03:57:56.828Z,19.08
2022-08-25T03:58:59.221Z,17.17
2022-08-25T04:00:01.592Z,19.35
2022-08-25T04:01:19.839Z,15.23
2022-08-25T04:02:22.171Z,14.80
2022-08-25T04:03:24.462Z,14.93
2022-08-25T04:04:28.964Z,17.75
2022-08-25T04:05:33.887Z,15.55
2022-08-25T04:06:38.156Z,15.93
2022-08-25T04:07:40.509Z,15.93
2022-08-25T04:08:42.940Z,15.27
2022-08-25T04:09:45.227Z,16.65
2022-08-25T04:10:48.684Z,17.20
2022-08-25T04:11:53.108Z,16.10
2022-08-25T04:12:56.226Z,15.40
2022-08-25T04:14:01.354Z,16.98
2022-08-25T04:15:05.790Z,18.38
2022-08-25T04:16:14.288Z,16.35
2022-08-25T04:17:17.630Z,18.25
2022-08-25T04:18:19.833Z,17.33
2022-08-25T04:19:22.556Z,17.50
2022-08-25T04:20:24.766Z,17.40
2022-08-25T04:21:28.241Z,16.42
2022-08-25T04:22:31.934Z,16.65
2022-08-25T04:23:41.225Z,17.52
2022-08-25T04:24:43.416Z,18.48
2022-08-25T04:25:46.162Z,18.17
2022-08-25T04:26:51.472Z,18.10
2022-08-25T04:27:55.213Z,16.92
2022-08-25T04:29:00.147Z,16.80
2022-08-25T04:30:06.346Z,19.50
2022-08-25T04:31:10.845Z,16.98
2022-08-25T04:32:14.044Z,17.33
2022-08-25T04:33:16.332Z,18.63
2022-08-25T04:34:28.424Z,17.23
2022-08-25T04:35:33.510Z,18.33
2022-08-25T04:36:36.729Z,19.02
2022-08-25T04:37:38.985Z,18.98
2022-08-25T04:38:42.961Z,17.80
2022-08-25T04:39:45.225Z,17.48
2022-08-25T04:40:56.582Z,18.77
2022-08-25T04:42:02.961Z,17.75
2022-08-25T04:43:05.143Z,17.58
2022-08-25T04:44:10.402Z,18.98
2022-08-25T04:45:12.624Z,20.27
2022-08-25T04:46:20.087Z,16.10
2022-08-25T04:47:23.340Z,16.88
2022-08-25T04:48:26.413Z,17.25
2022-08-25T04:49:28.894Z,15.70
2022-08-25T04:50:31.168Z,17.98
2022-08-25T04:51:39.723Z,16.92
2022-08-25T04:52:45.006Z,18.70
2022-08-25T04:53:47.295Z,19.90
2022-08-25T04:54:49.492Z,18.75
2022-08-25T04:55:59.574Z,18.55
2022-08-25T04:58:23.016Z,18.42
2022-08-25T04:59:29.899Z,16.23
2022-08-25T05:00:35.842Z,16.60
2022-08-25T05:01:39.330Z,17.88
2022-08-25T05:02:41.497Z,16.95
2022-08-25T05:03:45.366Z,18.70
2022-08-25T05:04:47.630Z,18.05
2022-08-25T05:05:52.583Z,17.58
2022-08-25T05:06:55.057Z,17.70
2022-08-25T05:07:58.008Z,16.30
2022-08-25T05:09:01.825Z,17.67
2022-08-25T05:10:05.377Z,17.20
2022-08-25T05:11:09.394Z,18.55
2022-08-25T05:12:12.386Z,17.27
2022-08-25T05:13:14.836Z,16.95
2022-08-25T05:14:21.706Z,16.00
2022-08-25T05:15:46.757Z,16.35
2022-08-25T05:16:49.704Z,17.42
2022-08-25T05:17:55.810Z,16.92
2022-08-25T05:18:58.587Z,17.02
2022-08-25T05:20:01.151Z,16.17
2022-08-25T05:21:13.716Z,17.15
2022-08-25T05:22:15.907Z,16.85
2022-08-25T05:23:18.128Z,16.95
2022-08-25T05:24:22.235Z,19.60
2022-08-25T05:25:24.660Z,18.58
2022-08-25T05:26:33.469Z,17.40
2022-08-25T05:27:38.217Z,16.50
2022-08-25T05:28:42.142Z,17.08
2022-08-25T05:29:49.760Z,16.08
2022-08-25T05:30:51.984Z,15.50
2022-08-25T05:31:54.571Z,17.02
2022-08-25T05:32:57.386Z,15.93
2022-08-25T05:34:00.516Z,15.10
2022-08-25T05:35:03.137Z,15.50
2022-08-25T05:36:09.892Z,17.23
2022-08-25T05:37:12.383Z,16.50
2022-08-25T05:38:15.652Z,17.02
2022-08-25T05:39:18.995Z,17.13
2022-08-25T05:40:21.892Z,17.73
2022-08-25T05:41:29.062Z,18.50
2022-08-25T05:42:35.021Z,17.33
2022-08-25T05:43:39.911Z,18.02
2022-08-25T05:44:42.354Z,17.42
2022-08-25T05:45:44.788Z,18.23
2022-08-25T05:46:47.368Z,19.48
2022-08-25T05:47:50.111Z,17.55
2022-08-25T05:48:53.754Z,19.25
2022-08-25T05:49:56.338Z,18.42
2022-08-25T05:51:03.472Z,18.83
2022-08-25T05:52:05.723Z,21.17
2022-08-25T05:53:07.952Z,18.13
2022-08-25T05:54:10.270Z,20.00
2022-08-25T05:55:12.651Z,18.58
2022-08-25T05:56:15.813Z,18.20
2022-08-25T05:57:18.019Z,18.15
2022-08-25T05:58:21.503Z,21.27
2022-08-25T05:59:24.035Z,20.45
2022-08-25T06:00:26.569Z,18.60
2022-08-25T06:01:48.309Z,20.35
2022-08-25T06:02:51.238Z,20.13
2022-08-25T06:03:54.519Z,20.70
2022-08-25T06:04:58.845Z,22.35
2022-08-25T06:06:10.954Z,18.13
2022-08-25T06:07:15.854Z,21.08
2022-08-25T06:08:20.041Z,23.27
2022-08-25T06:09:22.580Z,23.00
2022-08-25T06:10:25.366Z,23.63
2022-08-25T06:11:27.913Z,24.70
2022-08-25T06:12:32.606Z,25.70
2022-08-25T06:13:35.580Z,25.67
2022-08-25T06:14:41.026Z,28.33
2022-08-25T06:15:43.930Z,25.88
2022-08-25T06:16:51.572Z,25.23
2022-08-25T06:17:56.746Z,26.30
2022-08-25T06:19:08.022Z,24.27
2022-08-25T06:20:14.136Z,26.38
2022-08-25T06:21:18.620Z,27.55
2022-08-25T06:22:22.142Z,26.08
2022-08-25T06:23:24.389Z,28.40
2022-08-25T06:24:28.310Z,27.45
2022-08-25T06:25:33.637Z,29.90
2022-08-25T06:26:35.897Z,25.17
2022-08-25T06:27:38.912Z,28.05
2022-08-25T06:28:43.311Z,23.73
2022-08-25T06:29:45.609Z,26.92
2022-08-25T06:30:50.441Z,23.50
2022-08-25T06:31:52.896Z,26.33
2022-08-25T06:33:03.152Z,24.70
2022-08-25T06:34:07.284Z,27.75
2022-08-25T06:35:13.104Z,25.95
2022-08-25T06:36:15.861Z,24.50
2022-08-25T06:37:20.360Z,22.85
2022-08-25T06:38:26.361Z,25.48
2022-08-25T06:39:28.649Z,24.20
2022-08-25T06:40:30.844Z,27.90
2022-08-25T06:41:36.870Z,24.75
2022-08-25T06:42:39.730Z,25.88
2022-08-25T06:43:48.095Z,25.15
2022-08-25T06:44:51.539Z,23.40
2022-08-25T06:45:53.719Z,22.98
2022-08-25T06:46:55.970Z,23.25
2022-08-25T06:47:59.569Z,24.35
2022-08-25T06:49:01.878Z,26.25
2022-08-25T06:50:04.955Z,23.90
2022-08-25T06:51:16.270Z,23.48
2022-08-25T06:52:19.928Z,23.15
2022-08-25T06:53:22.111Z,23.83
2022-08-25T06:54:24.380Z,27.02
2022-08-25T06:55:26.544Z,26.20
2022-08-25T06:56:29.201Z,22.33
2022-08-25T06:57:35.992Z,21.80
2022-08-25T06:58:39.250Z,21.55
2022-08-25T06:59:41.704Z,26.60
2022-08-25T07:00:44.593Z,25.05
2022-08-25T07:01:49.499Z,22.85
2022-08-25T07:02:52.029Z,21.42
2022-08-25T07:03:57.773Z,23.52
2022-08-25T07:05:00.548Z,25.88
2022-08-25T07:06:04.711Z,25.48
2022-08-25T07:07:14.269Z,27.17
2022-08-25T07:08:16.451Z,24.00
2022-08-25T07:09:19.601Z,24.13
2022-08-25T07:10:21.811Z,22.60
2022-08-25T07:11:24.787Z,21.75
2022-08-25T07:12:27.246Z,21.88
2022-08-25T07:13:30.163Z,22.15
2022-08-25T07:14:32.382Z,21.75
2022-08-25T07:15:38.632Z,22.67
2022-08-25T07:16:43.149Z,24.55
2022-08-25T07:17:50.923Z,23.42
2022-08-25T07:19:00.299Z,22.10
2022-08-25T07:20:02.813Z,23.17
2022-08-25T07:21:05.413Z,22.30
2022-08-25T07:22:11.285Z,22.02
2022-08-25T07:23:13.516Z,23.15
2022-08-25T07:24:16.474Z,21.20
2022-08-25T07:25:18.853Z,21.00
2022-08-25T07:26:37.338Z,23.90
2022-08-25T07:27:41.262Z,19.80
2022-08-25T07:30:08.796Z,26.40
2022-08-25T07:31:17.169Z,32.65
2022-08-25T07:32:20.191Z,35.35
2022-08-25T07:33:23.353Z,35.03
2022-08-25T07:34:51.846Z,29.30
2022-08-25T07:35:54.915Z,35.95
2022-08-25T07:36:59.106Z,30.45
2022-08-25T07:38:09.058Z,30.13
2022-08-25T07:39:12.725Z,28.20
2022-08-25T07:40:18.427Z,26.25
2022-08-25T07:41:20.853Z,30.38
2022-08-25T07:42:27.735Z,27.77
2022-08-25T07:43:30.035Z,19.08
2022-08-25T07:44:33.264Z,19.27
2022-08-25T07:45:49.199Z,20.00
2022-08-25T07:46:52.057Z,19.67
2022-08-25T07:48:09.174Z,17.85
2022-08-25T07:49:16.781Z,20.83
2022-08-25T07:50:20.541Z,19.38
2022-08-25T07:51:23.163Z,21.98
2022-08-25T07:52:25.565Z,21.95
2022-08-25T07:53:27.983Z,19.67
2022-08-25T07:54:34.574Z,21.65
2022-08-25T07:55:38.148Z,24.83
2022-08-25T07:56:43.080Z,22.42
2022-08-25T07:57:49.869Z,26.95
2022-08-25T07:58:56.304Z,20.27
2022-08-25T07:59:59.028Z,22.70
2022-08-25T08:01:01.213Z,22.25
2022-08-25T08:02:05.300Z,27.05
2022-08-25T08:03:19.891Z,21.95
2022-08-25T08:04:36.528Z,22.48
2022-08-25T08:05:41.558Z,19.48
2022-08-25T08:06:43.868Z,20.58
2022-08-25T08:07:48.918Z,21.70
2022-08-25T08:08:54.751Z,21.20
2022-08-25T08:10:32.885Z,19.67
2022-08-25T08:11:24.049Z,18.20
2022-08-25T08:12:27.240Z,17.63
2022-08-25T08:13:29.668Z,18.55
2022-08-25T08:14:32.313Z,22.15
2022-08-25T08:15:35.672Z,18.70
2022-08-25T08:16:39.746Z,21.02
2022-08-25T08:17:45.619Z,18.60
2022-08-25T08:18:48.071Z,22.15
2022-08-25T08:19:50.599Z,18.17
2022-08-25T08:20:53.134Z,18.33
2022-08-25T08:21:56.461Z,18.23
2022-08-25T08:23:00.435Z,17.58
2022-08-25T08:24:14.779Z,18.65
2022-08-25T08:25:27.860Z,17.98
2022-08-25T08:26:55.156Z,20.55
2022-08-25T08:27:54.911Z,20.15
2022-08-25T08:28:57.485Z,18.02
2022-08-25T08:30:00.474Z,19.20
2022-08-25T08:31:03.589Z,18.45
2022-08-25T08:32:13.575Z,17.77
2022-08-25T08:33:15.813Z,17.90
2022-08-25T08:34:24.971Z,17.20
2022-08-25T08:35:27.719Z,18.55
2022-08-25T08:36:29.919Z,17.48
2022-08-25T08:37:32.437Z,18.92
2022-08-25T08:38:40.531Z,17.52
2022-08-25T08:39:46.244Z,21.13
2022-08-25T08:41:23.164Z,18.35
2022-08-25T08:42:53.706Z,16.00
2022-08-25T08:44:17.586Z,16.83
2022-08-25T08:45:28.965Z,18.75
2022-08-25T08:46:59.251Z,16.63
2022-08-25T08:48:13.638Z,17.58
2022-08-25T08:50:06.485Z,16.90
2022-08-25T08:51:33.552Z,18.45
2022-08-25T08:52:48.703Z,19.48
2022-08-25T08:54:04.731Z,18.48
2022-08-25T08:55:30.394Z,18.23
2022-08-25T08:56:38.884Z,16.48
2022-08-25T08:57:52.967Z,16.55
2022-08-25T08:59:05.635Z,16.13
2022-08-25T09:00:11.747Z,17.55
2022-08-25T09:01:23.437Z,18.13
2022-08-25T09:02:39.173Z,15.93
2022-08-25T09:04:00.076Z,16.63
2022-08-25T09:05:08.191Z,19.00
2022-08-25T09:06:26.065Z,16.70
2022-08-25T09:07:55.004Z,16.65
2022-08-25T09:09:06.978Z,16.17
2022-08-25T09:10:10.405Z,15.75
2022-08-25T09:11:31.772Z,19.65
2022-08-25T09:12:48.161Z,17.00
2022-08-25T09:13:50.791Z,15.75
2022-08-25T09:15:13.565Z,20.55
2022-08-25T09:16:58.406Z,14.95
2022-08-25T09:18:19.979Z,18.70
2022-08-25T09:19:43.091Z,17.52
2022-08-25T09:21:03.191Z,17.95
2022-08-25T09:22:34.011Z,19.40
2022-08-25T09:23:44.706Z,22.25
2022-08-25T09:25:21.939Z,18.77
2022-08-25T09:26:36.307Z,16.70
2022-08-25T09:27:39.727Z,18.20
2022-08-25T09:28:55.499Z,17.73
2022-08-25T09:30:05.147Z,21.50
2022-08-25T09:31:26.448Z,18.75
2022-08-25T09:32:38.665Z,19.83
2022-08-25T09:33:44.822Z,16.95
2022-08-25T09:34:51.141Z,16.52
2022-08-25T09:35:55.515Z,14.93
2022-08-25T09:37:03.951Z,16.77
2022-08-25T09:38:10.945Z,20.83
2022-08-25T09:39:13.182Z,17.55
2022-08-25T09:40:15.871Z,17.48
2022-08-25T09:41:56.358Z,15.38
2022-08-25T09:43:01.777Z,14.48
2022-08-25T09:44:04.119Z,14.27
2022-08-25T09:45:14.081Z,14.25
2022-08-25T09:46:29.370Z,18.67
2022-08-25T09:47:32.841Z,13.55
2022-08-25T09:48:46.482Z,14.63
2022-08-25T09:50:00.370Z,15.75
2022-08-25T09:51:18.280Z,15.25
2022-08-25T09:52:46.173Z,14.32
2022-08-25T09:54:03.339Z,15.05
2022-08-25T09:55:14.660Z,15.35
2022-08-25T09:56:21.786Z,13.40
2022-08-25T09:57:36.498Z,16.88
2022-08-25T09:58:38.682Z,15.88
2022-08-25T09:59:57.535Z,16.33
2022-08-25T10:01:13.709Z,13.40
2022-08-25T10:02:32.913Z,17.27
2022-08-25T10:03:36.712Z,12.73
2022-08-25T10:04:40.473Z,13.50
2022-08-25T10:05:45.872Z,15.63
2022-08-25T10:06:48.184Z,13.68
2022-08-25T10:08:24.769Z,12.90
2022-08-25T10:09:34.477Z,15.32
2022-08-25T10:10:44.505Z,15.18
2022-08-25T10:11:52.714Z,12.60
2022-08-25T10:13:16.043Z,15.75
2022-08-25T10:14:36.562Z,13.05
2022-08-25T10:15:39.865Z,15.70
2022-08-25T10:16:42.889Z,16.08
2022-08-25T10:17:58.213Z,12.90
2022-08-25T10:19:07.652Z,13.70
2022-08-25T10:20:10.038Z,13.23
2022-08-25T10:21:15.315Z,18.55
2022-08-25T10:22:36.309Z,16.65
2022-08-25T10:23:44.782Z,13.70
2022-08-25T10:24:47.331Z,13.40
2022-08-25T10:25:59.095Z,13.30
2022-08-25T10:27:29.129Z,16.75
2022-08-25T10:29:10.064Z,17.13
2022-08-25T10:30:20.073Z,13.00
2022-08-25T10:31:41.632Z,17.27
2022-08-25T10:33:15.388Z,14.18
2022-08-25T10:34:44.406Z,15.27
2022-08-25T10:36:12.541Z,16.17
2022-08-25T10:37:46.023Z,15.02
2022-08-25T10:38:58.466Z,15.85
2022-08-25T10:40:37.354Z,13.20
2022-08-25T10:42:10.368Z,17.30
2022-08-25T10:43:33.991Z,14.57
2022-08-25T10:45:16.810Z,16.67
2022-08-25T10:46:36.281Z,16.67
2022-08-25T10:48:00.962Z,14.68
2022-08-25T10:49:19.749Z,16.67
2022-08-25T10:51:07.197Z,13.88
2022-08-25T10:52:26.149Z,16.83
2022-08-25T10:53:45.811Z,15.52
2022-08-25T10:55:05.930Z,19.55
2022-08-25T10:56:17.260Z,16.42
2022-08-25T10:57:38.551Z,13.95
2022-08-25T10:59:00.091Z,17.15
2022-08-25T11:00:17.250Z,16.25
2022-08-25T11:01:43.651Z,14.73
2022-08-25T11:03:26.700Z,13.65
2022-08-25T11:04:38.513Z,15.93
2022-08-25T11:05:55.456Z,18.63
2022-08-25T11:07:00.494Z,18.30
2022-08-25T11:08:28.719Z,14.57
2022-08-25T11:09:38.807Z,15.65
2022-08-25T11:11:06.003Z,22.00
2022-08-25T11:12:25.633Z,23.70
2022-08-25T11:13:50.400Z,17.40
2022-08-25T11:14:57.801Z,21.65
2022-08-25T11:16:18.498Z,17.85
2022-08-25T11:17:27.443Z,15.07
2022-08-25T11:18:32.053Z,19.50
2022-08-25T11:19:48.412Z,18.58
2022-08-25T11:21:12.107Z,23.05
2022-08-25T11:22:26.044Z,20.60
2022-08-25T11:23:36.423Z,16.00
2022-08-25T11:24:50.359Z,14.57
2022-08-25T11:25:59.259Z,21.83
2022-08-25T11:27:05.717Z,18.08
2022-08-25T11:28:22.320Z,14.13
2022-08-25T11:29:31.396Z,17.85
2022-08-25T11:30:33.813Z,18.70
2022-08-25T11:31:43.928Z,20.25
2022-08-25T11:32:49.943Z,17.83
2022-08-25T11:33:54.749Z,20.55
2022-08-25T11:35:01.219Z,19.70
2022-08-25T11:36:29.404Z,17.95
2022-08-25T11:37:35.482Z,16.30
2022-08-25T11:39:16.905Z,17.23
2022-08-25T11:40:32.545Z,15.60
2022-08-25T11:41:49.204Z,16.75
2022-08-25T11:43:08.219Z,18.08
2022-08-25T11:44:51.787Z,15.52
2022-08-25T11:46:08.036Z,16.13
2022-08-25T11:47:35.136Z,26.30
2022-08-25T11:49:16.487Z,18.00
2022-08-25T11:50:37.107Z,17.02
2022-08-25T11:51:48.475Z,18.55
2022-08-25T11:52:56.694Z,17.80
2022-08-25T11:54:44.225Z,16.67
2022-08-25T11:55:53.858Z,15.32
2022-08-25T11:57:04.300Z,17.40
2022-08-25T11:58:41.003Z,19.75
2022-08-25T11:59:52.495Z,18.58
2022-08-25T12:00:57.407Z,15.55
2022-08-25T12:02:05.697Z,18.20
2022-08-25T12:03:32.765Z,20.15
2022-08-25T12:04:44.418Z,20.98
2022-08-25T12:06:12.575Z,14.55
2022-08-25T12:07:22.775Z,19.95
2022-08-25T12:08:53.192Z,19.38
2022-08-25T12:10:02.917Z,24.05
2022-08-25T12:11:11.238Z,19.27
2022-08-25T12:12:46.674Z,18.70
2022-08-25T12:13:51.520Z,20.55
2022-08-25T12:15:13.625Z,24.20
2022-08-25T12:16:55.732Z,13.38
2022-08-25T12:18:15.524Z,15.73
2022-08-25T12:19:26.350Z,22.40
2022-08-25T12:20:52.781Z,18.55
2022-08-25T12:22:18.988Z,16.42
2022-08-25T12:23:34.656Z,15.80
2022-08-25T12:25:18.150Z,19.17
2022-08-25T12:26:36.575Z,16.33
2022-08-25T12:28:02.445Z,19.70
2022-08-25T12:29:21.346Z,15.88
2022-08-25T12:30:36.600Z,17.65
2022-08-25T12:32:09.292Z,19.20
2022-08-25T12:33:41.958Z,17.85
2022-08-25T12:35:12.403Z,18.13
2022-08-25T12:36:33.488Z,16.30
2022-08-25T12:37:54.768Z,20.50
2022-08-25T12:39:16.221Z,17.58
2022-08-25T12:40:26.906Z,17.33
2022-08-25T12:41:33.771Z,20.70
2022-08-25T12:42:43.970Z,18.83
2022-08-25T12:43:48.922Z,16.75
2022-08-25T12:45:09.154Z,16.73
2022-08-25T12:46:28.064Z,19.13
2022-08-25T12:47:34.004Z,17.92
2022-08-25T12:48:36.207Z,18.10
2022-08-25T12:49:38.679Z,16.25
2022-08-25T12:50:44.691Z,22.88
2022-08-25T12:51:57.400Z,17.52
2022-08-25T12:53:10.227Z,16.13
2022-08-25T12:54:44.126Z,15.82
2022-08-25T12:55:55.606Z,16.65
2022-08-25T12:57:03.243Z,14.13
2022-08-25T12:58:07.779Z,19.17
2022-08-25T12:59:21.926Z,15.02
2022-08-25T13:02:49.648Z,16.88
2022-08-25T13:04:19.285Z,14.07
2022-08-25T13:06:01.421Z,15.88
2022-08-25T13:07:32.704Z,16.45
2022-08-25T13:09:12.467Z,18.58
2022-08-25T13:10:24.507Z,17.65
2022-08-25T13:11:39.000Z,18.33
2022-08-25T13:13:06.313Z,19.13
2022-08-25T13:14:20.025Z,16.58
2022-08-25T13:15:45.235Z,14.38
2022-08-25T13:16:58.054Z,14.63
2022-08-25T13:18:23.691Z,21.13
2022-08-25T13:19:28.000Z,16.02
2022-08-25T13:20:39.550Z,15.23
2022-08-25T13:21:46.302Z,17.13
2022-08-25T13:22:57.655Z,12.68
2022-08-25T13:24:06.932Z,14.60
2022-08-25T13:25:15.719Z,11.73
2022-08-25T13:26:29.765Z,22.20
2022-08-25T13:27:35.814Z,13.23
2022-08-25T13:28:40.827Z,12.85
2022-08-25T13:29:55.949Z,18.65
2022-08-25T13:31:12.372Z,16.52
2022-08-25T13:32:17.043Z,14.00
2022-08-25T13:33:22.185Z,19.02
2022-08-25T13:34:34.774Z,18.25
2022-08-25T13:35:37.441Z,18.50
2022-08-25T13:37:07.735Z,18.23
2022-08-25T13:38:15.346Z,19.10
2022-08-25T13:39:54.933Z,16.02
2022-08-25T13:41:08.210Z,19.63
2022-08-25T13:42:16.252Z,16.90
2022-08-25T13:43:18.679Z,18.98
2022-08-25T13:44:32.179Z,15.95
2022-08-25T13:45:46.312Z,16.10
2022-08-25T13:47:06.138Z,15.00
2022-08-25T13:48:22.931Z,19.23
2022-08-25T13:49:26.625Z,14.27
2022-08-25T13:50:32.019Z,21.17
2022-08-25T13:51:35.675Z,23.42
2022-08-25T13:52:37.911Z,21.42
2022-08-25T13:53:51.080Z,19.65
2022-08-25T13:54:59.735Z,16.75
2022-08-25T13:56:03.405Z,16.35
2022-08-25T13:57:25.089Z,18.67
2022-08-25T13:58:38.624Z,25.10
2022-08-25T13:59:51.830Z,18.42
2022-08-25T14:01:22.419Z,22.42
2022-08-25T14:02:49.655Z,16.08
2022-08-25T14:03:55.544Z,18.33
2022-08-25T14:05:06.498Z,19.55
2022-08-25T14:06:19.507Z,16.40
2022-08-25T14:07:34.052Z,16.40
2022-08-25T14:08:40.578Z,13.85
2022-08-25T14:09:50.384Z,19.35
2022-08-25T14:11:06.189Z,16.77
2022-08-25T14:12:08.887Z,16.08
2022-08-25T14:13:38.206Z,15.35
2022-08-25T14:14:58.265Z,17.00
2022-08-25T14:16:14.325Z,11.65
2022-08-25T14:17:38.567Z,18.92
2022-08-25T14:18:48.640Z,16.42
2022-08-25T14:19:50.870Z,19.50
2022-08-25T14:20:55.843Z,16.05
2022-08-25T14:22:02.164Z,16.13
2022-08-25T14:23:10.158Z,20.42
2022-08-25T14:24:22.597Z,15.45
2022-08-25T14:25:26.897Z,20.33
2022-08-25T14:26:29.150Z,18.50
2022-08-25T14:27:38.776Z,16.17
2022-08-25T14:28:44.275Z,16.45
2022-08-25T14:29:47.930Z,18.33
2022-08-25T14:31:00.306Z,18.20
2022-08-25T14:32:03.211Z,22.42
2022-08-25T14:33:09.819Z,16.27
2022-08-25T14:34:21.820Z,20.23
2022-08-25T14:35:24.458Z,18.10
2022-08-25T14:36:29.772Z,18.65
2022-08-25T14:37:32.849Z,14.30
2022-08-25T14:38:35.620Z,16.50
2022-08-25T14:39:40.887Z,13.98
2022-08-25T14:40:47.332Z,18.23
2022-08-25T14:41:53.905Z,16.77
2022-08-25T14:42:57.170Z,16.15
2022-08-25T14:44:03.419Z,14.60
2022-08-25T14:45:06.459Z,17.48
2022-08-25T14:46:24.617Z,19.58
2022-08-25T14:47:26.830Z,15.57
2022-08-25T14:48:35.377Z,18.38
2022-08-25T14:49:42.185Z,17.70
2022-08-25T14:50:46.197Z,19.63
2022-08-25T14:51:49.383Z,14.25
2022-08-25T14:52:52.304Z,19.85
2022-08-25T14:53:59.294Z,17.75
2022-08-25T14:55:04.073Z,14.75